Terminal Aerodrome Forecast
Issued by NWS

Home | Current Version | Previous Version | Graphics & Text | Print | Product List | Glossary On
Versions: 1 2 3 4 5 6 7 8 9 10 11 12
000
FTUS42 KMHX 211100
TAFISO
TAF
KISO 211140Z 2112/2212 35009G16KT P6SM SCT025 OVC040
     FM212000 01004KT P6SM SKC
     FM220900 00000KT P6SM BKN150
      AMD LTD TO CLD VIS AND WIND=

USA.gov is the U.S. government's official web portal to all federal, state and local government web resources and services.